Time;durP1;ratioP1;P1;durP2;ratioP2;P2;SDS_P1;SDS_P2;PMS_P1;PMS_P2;Temp;Humidity;BMP_temperature;BMP_pressure;BME280_temperature;BME280_humidity;BME280_pressure;Samples;Min_cycle;Max_cycle;Signal;HPM_P1;HPM_P2
2022/09/23 00:00:01;;;;;;;16.50;12.88;;;10.50;99.90;;;;;;5062971;28;20129;-61
2022/09/23 00:02:26;;;;;;;14.68;13.27;;;10.50;99.90;;;;;;5048999;28;20044;-61
2022/09/23 00:04:52;;;;;;;15.23;13.40;;;10.50;99.90;;;;;;5049334;28;20048;-61
2022/09/23 00:07:17;;;;;;;14.13;12.63;;;10.50;99.90;;;;;;5059106;28;20084;-61
2022/09/23 00:09:43;;;;;;;15.93;13.52;;;10.40;99.90;;;;;;5049319;28;20083;-61
2022/09/23 00:12:09;;;;;;;15.23;13.02;;;10.40;99.90;;;;;;5047500;28;20049;-61
2022/09/23 00:14:37;;;;;;;13.77;12.57;;;10.40;99.90;;;;;;5047992;28;20704;-61
2022/09/23 00:17:03;;;;;;;15.07;13.00;;;10.40;99.90;;;;;;5048110;28;20504;-62
2022/09/23 00:19:29;;;;;;;14.50;12.82;;;10.40;99.90;;;;;;5048741;28;20075;-61
2022/09/23 00:21:55;;;;;;;15.07;12.88;;;10.40;99.90;;;;;;5049005;28;20052;-61
2022/09/23 00:24:22;;;;;;;14.15;12.80;;;10.40;99.90;;;;;;5048153;28;20064;-63
2022/09/23 00:26:49;;;;;;;13.80;12.48;;;10.30;99.90;;;;;;5048766;28;20107;-62
2022/09/23 00:29:15;;;;;;;14.60;12.55;;;10.30;99.90;;;;;;5047376;28;20088;-61
2022/09/23 00:31:41;;;;;;;13.75;12.45;;;10.30;99.90;;;;;;5046883;28;20091;-60
2022/09/23 00:34:10;;;;;;;14.95;12.32;;;10.20;99.90;;;;;;5048699;28;20045;-62
2022/09/23 00:36:35;;;;;;;14.65;13.18;;;10.20;99.90;;;;;;5048950;28;20041;-62
2022/09/23 00:39:02;;;;;;;16.58;12.75;;;10.30;99.90;;;;;;5047289;28;20055;-61
2022/09/23 00:41:29;;;;;;;13.77;12.48;;;10.20;99.90;;;;;;5047822;28;20071;-65
2022/09/23 00:43:59;;;;;;;13.27;11.98;;;10.20;99.90;;;;;;5046006;28;20103;-60
2022/09/23 00:46:44;;;;;;;13.80;12.40;;;10.20;99.90;;;;;;5048201;28;20402;-62
2022/09/23 00:49:23;;;;;;;13.75;12.45;;;10.20;99.90;;;;;;5046858;28;20098;-62
2022/09/23 00:51:54;;;;;;;14.05;12.65;;;10.20;99.90;;;;;;5046965;28;20131;-61
2022/09/23 00:54:23;;;;;;;13.07;11.88;;;10.20;99.90;;;;;;5047602;28;20118;-62
2022/09/23 00:56:49;;;;;;;13.93;12.43;;;10.10;99.90;;;;;;5048090;28;20519;-61
2022/09/23 00:59:15;;;;;;;13.23;11.93;;;10.20;99.90;;;;;;5047034;28;20045;-62
2022/09/23 01:01:42;;;;;;;13.77;12.30;;;10.20;99.90;;;;;;5047574;28;20063;-60
2022/09/23 01:04:08;;;;;;;28.65;12.43;;;10.30;99.90;;;;;;5048086;28;20092;-62
2022/09/23 01:06:34;;;;;;;12.88;11.25;;;10.20;99.90;;;;;;5055079;28;20045;-61
2022/09/23 01:09:00;;;;;;;13.23;12.07;;;10.20;99.90;;;;;;5048947;28;20056;-62
2022/09/23 01:11:48;;;;;;;13.13;11.82;;;10.20;99.90;;;;;;5047969;28;20040;-61
2022/09/23 01:15:02;;;;;;;12.82;11.43;;;10.20;99.90;;;;;;5046443;28;20041;-59
2022/09/23 01:17:48;;;;;;;14.32;11.98;;;10.20;99.90;;;;;;5033061;28;20049;-61
2022/09/23 01:20:32;;;;;;;13.32;11.98;;;10.20;99.90;;;;;;5045722;28;20606;-62
2022/09/23 01:23:13;;;;;;;13.15;11.73;;;10.20;99.90;;;;;;5047132;28;20037;-62
2022/09/23 01:26:00;;;;;;;12.70;11.48;;;10.30;99.90;;;;;;5047491;28;20048;-61
2022/09/23 01:29:01;;;;;;;12.48;11.27;;;10.30;99.90;;;;;;5046489;28;20116;-63
2022/09/23 01:31:42;;;;;;;13.10;11.32;;;10.30;99.90;;;;;;5047177;28;20110;-62
2022/09/23 01:34:25;;;;;;;12.35;11.05;;;10.30;99.90;;;;;;5047673;28;20045;-61
2022/09/23 01:36:57;;;;;;;12.65;11.07;;;10.30;99.90;;;;;;5046999;28;20099;-62
2022/09/23 01:39:51;;;;;;;11.90;10.63;;;10.30;99.90;;;;;;5045374;28;20087;-62
2022/09/23 01:42:29;;;;;;;12.57;11.27;;;10.20;99.90;;;;;;5046640;28;20052;-61
2022/09/23 01:45:01;;;;;;;13.90;11.82;;;10.20;99.90;;;;;;5046191;28;20052;-60
2022/09/23 01:47:34;;;;;;;14.88;11.93;;;10.20;99.90;;;;;;5046236;28;20053;-61
2022/09/23 01:53:21;;;;;;;18.42;11.43;;;10.10;99.90;;;;;;5046951;28;20052;-62
2022/09/23 01:55:56;;;;;;;15.07;11.48;;;10.20;99.90;;;;;;5046088;28;20049;-61
2022/09/23 01:58:36;;;;;;;15.80;11.70;;;10.10;99.90;;;;;;5046030;28;20041;-62
2022/09/23 02:01:06;;;;;;;15.95;11.50;;;10.10;99.90;;;;;;5046136;28;20692;-62
2022/09/23 02:03:54;;;;;;;13.50;11.40;;;10.10;99.90;;;;;;5046693;28;20091;-62
2022/09/23 02:06:21;;;;;;;12.40;10.95;;;10.10;99.90;;;;;;5054121;28;20074;-62
2022/09/23 02:08:55;;;;;;;12.43;11.00;;;10.10;99.90;;;;;;5050210;28;20041;-62
2022/09/23 02:11:22;;;;;;;14.55;11.88;;;10.20;99.90;;;;;;5046535;28;20048;-62
2022/09/23 02:14:02;;;;;;;14.02;11.40;;;10.10;99.90;;;;;;5043777;28;20045;-62
2022/09/23 02:16:46;;;;;;;13.88;10.70;;;10.20;99.90;;;;;;5046210;28;20064;-62
2022/09/23 02:19:20;;;;;;;14.82;11.10;;;10.20;99.90;;;;;;5045835;28;20094;-61
2022/09/23 02:22:10;;;;;;;13.15;11.25;;;10.20;99.90;;;;;;5046505;28;20687;-62
2022/09/23 02:24:38;;;;;;;11.93;10.77;;;10.10;99.90;;;;;;5040712;28;20416;-61
2022/09/23 02:27:25;;;;;;;11.45;10.25;;;10.10;99.90;;;;;;5046449;28;20619;-62
2022/09/23 02:29:53;;;;;;;13.00;10.90;;;10.10;99.90;;;;;;5045094;28;20045;-62
2022/09/23 02:32:42;;;;;;;13.07;10.70;;;10.10;99.90;;;;;;5046233;28;20041;-64
2022/09/23 02:35:31;;;;;;;12.50;11.20;;;10.10;99.90;;;;;;5046228;28;20041;-62
2022/09/23 02:37:57;;;;;;;13.30;10.88;;;10.20;99.90;;;;;;5045070;28;20626;-62
2022/09/23 02:40:29;;;;;;;12.10;10.98;;;10.10;99.90;;;;;;5045789;28;20307;-62
2022/09/23 02:43:04;;;;;;;15.05;10.50;;;10.10;99.90;;;;;;5044660;28;20499;-63
2022/09/23 02:45:29;;;;;;;12.73;11.38;;;10.10;99.90;;;;;;5045964;28;20079;-61
2022/09/23 02:48:07;;;;;;;12.57;11.27;;;10.10;99.90;;;;;;5058194;28;20168;-61
2022/09/23 02:50:34;;;;;;;11.88;10.77;;;10.10;99.90;;;;;;5065920;28;20406;-61
2022/09/23 02:53:00;;;;;;;12.35;11.05;;;10.00;99.90;;;;;;5065007;28;20048;-61
2022/09/23 02:55:31;;;;;;;13.25;10.75;;;10.00;99.90;;;;;;5065498;28;20368;-62
2022/09/23 02:58:01;;;;;;;11.88;10.57;;;10.00;99.90;;;;;;5065437;28;20075;-61
2022/09/23 03:01:03;;;;;;;11.57;10.57;;;10.00;99.90;;;;;;5065430;28;20044;-62
2022/09/23 03:03:54;;;;;;;12.85;11.38;;;9.90;99.90;;;;;;5046546;28;20703;-61
2022/09/23 03:06:36;;;;;;;12.85;10.77;;;9.90;99.90;;;;;;5064052;28;20044;-61
2022/09/23 03:09:11;;;;;;;12.27;10.90;;;9.80;99.90;;;;;;5047121;28;20392;-62
2022/09/23 03:11:40;;;;;;;11.98;10.77;;;9.80;99.90;;;;;;5046601;28;20166;-62
2022/09/23 03:14:24;;;;;;;13.93;11.50;;;9.80;99.90;;;;;;5045553;28;20096;-62
2022/09/23 03:17:02;;;;;;;11.30;10.20;;;9.80;99.90;;;;;;5045725;28;20048;-62
2022/09/23 03:19:36;;;;;;;12.35;11.10;;;9.70;99.90;;;;;;5045549;28;20366;-62
2022/09/23 03:22:27;;;;;;;12.52;11.05;;;9.60;99.90;;;;;;5045013;28;20049;-61
2022/09/23 03:24:58;;;;;;;13.15;11.40;;;9.60;99.90;;;;;;5046407;28;20060;-62
2022/09/23 03:27:28;;;;;;;12.38;11.15;;;9.50;99.90;;;;;;5043813;28;20114;-61
2022/09/23 03:29:55;;;;;;;13.88;11.85;;;9.50;99.90;;;;;;5049551;28;20106;-62
2022/09/23 03:32:23;;;;;;;12.82;11.60;;;9.50;99.90;;;;;;5050078;28;20073;-61
2022/09/23 03:34:52;;;;;;;13.88;11.98;;;9.40;99.90;;;;;;5049148;28;20049;-62
2022/09/23 03:37:33;;;;;;;13.18;11.88;;;9.40;99.90;;;;;;5049641;28;20053;-60
2022/09/23 03:40:19;;;;;;;13.07;11.80;;;9.30;99.90;;;;;;5049658;28;20091;-62
2022/09/23 03:42:48;;;;;;;13.90;12.20;;;9.30;99.90;;;;;;5048861;28;20812;-61
2022/09/23 03:45:20;;;;;;;13.77;12.38;;;9.30;99.90;;;;;;5049188;28;20139;-60
2022/09/23 03:47:46;;;;;;;13.02;11.82;;;9.30;99.90;;;;;;5049156;28;20032;-61
2022/09/23 03:50:13;;;;;;;13.45;12.25;;;9.20;99.90;;;;;;5047675;28;20045;-61
2022/09/23 03:52:39;;;;;;;14.20;11.98;;;9.30;99.90;;;;;;5049572;28;20049;-61
2022/09/23 03:55:08;;;;;;;13.38;12.07;;;9.10;99.90;;;;;;5048590;28;20045;-61
2022/09/23 03:57:34;;;;;;;13.75;12.07;;;9.20;99.90;;;;;;5047774;28;20443;-61
2022/09/23 04:00:00;;;;;;;13.45;12.07;;;9.20;99.90;;;;;;5049355;28;20048;-61
2022/09/23 04:02:26;;;;;;;13.90;12.50;;;9.20;99.90;;;;;;5048404;28;20044;-60
2022/09/23 04:04:52;;;;;;;13.95;12.48;;;9.20;99.90;;;;;;5049587;28;20072;-62
2022/09/23 04:07:17;;;;;;;14.82;12.65;;;9.20;99.90;;;;;;5058671;28;20527;-62
2022/09/23 04:09:43;;;;;;;13.35;12.02;;;9.10;99.90;;;;;;5048956;28;20549;-60
2022/09/23 04:12:14;;;;;;;12.85;11.55;;;9.10;99.90;;;;;;5048343;28;20055;-61
2022/09/23 04:14:40;;;;;;;13.98;12.43;;;9.10;99.90;;;;;;5047274;28;20033;-61
2022/09/23 04:17:06;;;;;;;14.55;13.02;;;9.10;99.90;;;;;;5047543;28;20056;-62
2022/09/23 04:19:32;;;;;;;14.23;12.82;;;9.10;99.90;;;;;;5047894;28;20051;-61
2022/09/23 04:21:57;;;;;;;14.65;13.15;;;9.00;99.90;;;;;;5048335;28;20037;-62
2022/09/23 04:24:23;;;;;;;14.15;12.77;;;8.90;99.90;;;;;;5048659;28;20106;-63
2022/09/23 04:26:55;;;;;;;14.63;13.05;;;8.90;99.90;;;;;;5047681;28;20064;-61
2022/09/23 04:29:22;;;;;;;14.05;12.60;;;8.80;99.90;;;;;;5047892;28;20373;-64
2022/09/23 04:31:49;;;;;;;14.70;13.13;;;8.80;99.90;;;;;;5048791;28;20045;-62
2022/09/23 04:34:16;;;;;;;14.38;13.07;;;8.80;99.90;;;;;;5048147;28;20045;-59
2022/09/23 04:36:43;;;;;;;14.52;13.13;;;8.90;99.90;;;;;;5048718;28;20095;-62
2022/09/23 04:39:09;;;;;;;14.77;13.20;;;8.90;99.90;;;;;;5047938;28;20037;-60
2022/09/23 04:41:35;;;;;;;14.52;12.98;;;8.90;99.90;;;;;;5048281;28;20048;-62
2022/09/23 04:44:01;;;;;;;14.75;13.30;;;8.80;99.90;;;;;;5045765;28;20480;-62
2022/09/23 04:46:26;;;;;;;15.40;13.23;;;8.80;99.90;;;;;;5048013;28;20037;-62
2022/09/23 04:48:52;;;;;;;14.95;13.45;;;8.80;99.90;;;;;;5048310;28;20049;-61
2022/09/23 04:51:22;;;;;;;14.82;13.32;;;8.80;99.90;;;;;;5047921;28;20045;-61
2022/09/23 04:53:50;;;;;;;14.23;12.93;;;8.80;99.90;;;;;;5048293;28;20076;-62
2022/09/23 04:56:21;;;;;;;14.98;13.43;;;8.70;99.90;;;;;;5047811;28;20517;-62
2022/09/23 04:58:48;;;;;;;14.10;12.65;;;8.70;99.90;;;;;;5046879;28;20570;-60
2022/09/23 05:01:18;;;;;;;14.60;13.25;;;8.80;99.90;;;;;;5046430;28;20080;-62
2022/09/23 05:03:45;;;;;;;14.52;12.77;;;8.90;99.90;;;;;;5047800;28;20086;-62
2022/09/23 05:06:13;;;;;;;15.27;13.15;;;8.70;99.90;;;;;;5053407;28;20119;-63
2022/09/23 05:08:39;;;;;;;14.25;12.75;;;8.70;99.90;;;;;;5052747;28;20052;-62
2022/09/23 05:11:06;;;;;;;14.30;12.60;;;8.80;99.90;;;;;;5048692;28;20048;-61
2022/09/23 05:13:32;;;;;;;14.63;13.13;;;8.80;99.90;;;;;;5046539;28;20048;-61
2022/09/23 05:16:00;;;;;;;15.52;13.90;;;8.80;99.90;;;;;;5047205;28;20103;-61
2022/09/23 05:18:30;;;;;;;15.10;13.50;;;8.70;99.90;;;;;;5047793;28;20041;-62
2022/09/23 05:20:57;;;;;;;14.88;13.50;;;8.70;99.90;;;;;;5047850;28;20057;-62
2022/09/23 05:23:23;;;;;;;15.27;13.85;;;8.70;99.90;;;;;;5047034;28;20080;-62
2022/09/23 05:25:55;;;;;;;15.02;13.52;;;8.70;99.90;;;;;;5047196;28;20102;-61
2022/09/23 05:28:21;;;;;;;16.08;14.38;;;8.70;99.90;;;;;;5044850;28;20041;-61
2022/09/23 05:30:46;;;;;;;14.80;13.23;;;8.70;99.90;;;;;;5046692;28;20056;-60
2022/09/23 05:33:12;;;;;;;14.93;13.38;;;8.70;99.90;;;;;;5045878;28;20048;-60
2022/09/23 05:35:37;;;;;;;14.80;13.30;;;8.70;99.90;;;;;;5045851;28;20044;-62
2022/09/23 05:38:03;;;;;;;14.77;13.32;;;8.70;99.90;;;;;;5046892;28;20041;-60
2022/09/23 05:40:29;;;;;;;16.08;13.73;;;8.70;99.90;;;;;;5046461;28;20041;-61
2022/09/23 05:42:55;;;;;;;15.38;13.77;;;8.60;99.90;;;;;;5046337;28;20051;-62
2022/09/23 05:45:20;;;;;;;15.10;13.60;;;8.70;99.90;;;;;;5047272;28;20116;-59
2022/09/23 05:47:46;;;;;;;14.82;13.38;;;8.70;99.90;;;;;;5046732;28;20112;-62
2022/09/23 05:50:12;;;;;;;16.67;13.25;;;8.70;99.90;;;;;;5046846;28;20051;-62
2022/09/23 05:52:37;;;;;;;14.90;13.40;;;8.70;99.90;;;;;;5046450;28;20067;-62
2022/09/23 05:55:04;;;;;;;15.70;13.63;;;8.70;99.90;;;;;;5047141;28;20103;-62
2022/09/23 05:57:29;;;;;;;18.40;13.52;;;8.80;99.90;;;;;;5045923;28;20049;-62
2022/09/23 05:59:55;;;;;;;14.52;13.02;;;8.70;99.90;;;;;;5047175;28;20733;-62
2022/09/23 06:02:21;;;;;;;15.38;13.77;;;8.80;99.90;;;;;;5046765;28;20430;-62
2022/09/23 06:04:46;;;;;;;14.02;12.57;;;8.80;99.90;;;;;;5046388;28;20045;-61
2022/09/23 06:07:12;;;;;;;13.95;12.65;;;8.80;99.90;;;;;;5057512;28;20041;-61
2022/09/23 06:09:38;;;;;;;14.95;13.40;;;8.80;99.90;;;;;;5046926;28;20049;-62
2022/09/23 06:12:04;;;;;;;14.00;12.55;;;8.80;99.90;;;;;;5046381;28;20047;-60
2022/09/23 06:14:29;;;;;;;15.93;14.27;;;8.80;99.90;;;;;;5046049;28;20049;-62
2022/09/23 06:16:55;;;;;;;16.05;13.45;;;8.90;99.90;;;;;;5047021;28;20053;-61
2022/09/23 06:19:20;;;;;;;14.93;13.25;;;8.90;99.90;;;;;;5046630;28;20140;-61
2022/09/23 06:21:47;;;;;;;14.05;12.63;;;9.00;99.90;;;;;;5056304;28;20567;-62
2022/09/23 06:24:13;;;;;;;14.25;12.80;;;9.00;99.90;;;;;;5066301;28;20052;-63
2022/09/23 06:26:39;;;;;;;14.60;12.52;;;9.10;99.90;;;;;;5066831;28;20044;-62
2022/09/23 06:29:11;;;;;;;14.57;12.77;;;9.10;99.90;;;;;;5066174;28;20040;-61
2022/09/23 06:31:39;;;;;;;14.20;12.82;;;9.20;99.90;;;;;;5067055;28;20048;-62
2022/09/23 06:34:05;;;;;;;14.27;12.43;;;9.30;99.90;;;;;;5067053;28;20449;-61
2022/09/23 06:36:30;;;;;;;13.85;12.30;;;9.30;99.90;;;;;;5066116;28;20091;-62
2022/09/23 06:38:56;;;;;;;14.00;12.60;;;9.40;99.90;;;;;;5065730;28;20032;-61
2022/09/23 06:41:21;;;;;;;13.93;12.48;;;9.40;99.90;;;;;;5066298;28;20131;-61
2022/09/23 06:43:47;;;;;;;13.52;12.05;;;9.50;99.90;;;;;;5065012;28;20478;-62
2022/09/23 06:46:15;;;;;;;15.82;12.48;;;9.50;99.90;;;;;;5053164;28;20486;-61
2022/09/23 06:48:42;;;;;;;13.50;11.88;;;9.70;99.90;;;;;;5064344;28;20041;-62
2022/09/23 06:51:11;;;;;;;14.02;12.40;;;9.70;99.90;;;;;;5058700;28;20044;-62
2022/09/23 06:53:37;;;;;;;14.30;11.82;;;9.70;99.90;;;;;;5045892;28;20060;-62
2022/09/23 06:56:10;;;;;;;14.15;12.65;;;9.80;99.90;;;;;;5054802;28;20137;-61
2022/09/23 06:58:38;;;;;;;13.20;11.80;;;9.80;99.90;;;;;;5065679;28;20041;-61
2022/09/23 07:01:12;;;;;;;13.10;11.80;;;9.90;99.90;;;;;;5066097;28;20446;-61
2022/09/23 07:03:38;;;;;;;15.17;11.47;;;9.90;99.90;;;;;;5068313;28;20390;-61
2022/09/23 07:06:04;;;;;;;13.27;11.93;;;10.00;99.90;;;;;;5063588;28;20051;-61
2022/09/23 07:08:32;;;;;;;14.30;12.70;;;10.10;99.90;;;;;;5054487;28;20080;-59
2022/09/23 07:11:00;;;;;;;13.75;12.45;;;10.20;99.90;;;;;;5048024;28;20072;-60
2022/09/23 07:13:27;;;;;;;12.77;11.57;;;10.30;99.90;;;;;;5048639;28;20084;-61
2022/09/23 07:16:00;;;;;;;13.75;12.13;;;10.30;99.90;;;;;;5050001;28;20100;-61
2022/09/23 07:18:28;;;;;;;17.10;13.40;;;10.50;99.90;;;;;;5049529;28;20420;-63
2022/09/23 07:20:57;;;;;;;14.10;12.52;;;10.60;99.90;;;;;;5049610;28;20553;-61
2022/09/23 07:23:24;;;;;;;14.52;11.80;;;10.70;99.90;;;;;;5049158;28;20051;-61
2022/09/23 07:25:51;;;;;;;16.15;12.80;;;10.70;99.90;;;;;;5048938;28;20064;-62
2022/09/23 07:28:18;;;;;;;17.38;12.60;;;10.80;99.90;;;;;;5050505;28;20045;-62
2022/09/23 07:30:45;;;;;;;12.73;11.43;;;10.80;99.90;;;;;;5049023;28;20044;-59
2022/09/23 07:33:11;;;;;;;12.95;11.55;;;10.80;99.90;;;;;;5054648;28;20053;-63
2022/09/23 07:35:41;;;;;;;13.00;11.25;;;10.90;99.90;;;;;;5069304;28;20467;-63
2022/09/23 07:38:08;;;;;;;14.77;11.88;;;11.00;99.90;;;;;;5069137;28;20044;-62
2022/09/23 07:40:34;;;;;;;12.68;11.38;;;11.10;99.90;;;;;;5068027;28;20132;-61
2022/09/23 07:42:59;;;;;;;14.20;12.05;;;11.10;99.90;;;;;;5061758;28;20045;-63
2022/09/23 07:45:26;;;;;;;12.52;11.23;;;11.20;99.90;;;;;;5057154;28;20477;-62
2022/09/23 07:47:52;;;;;;;15.07;12.23;;;11.30;99.90;;;;;;5068344;28;20052;-61
2022/09/23 07:50:18;;;;;;;13.45;11.52;;;11.20;99.90;;;;;;5066590;28;20063;-61
2022/09/23 07:52:43;;;;;;;13.57;11.80;;;11.30;99.90;;;;;;5068993;28;20556;-62
2022/09/23 07:55:09;;;;;;;15.02;11.00;;;11.40;99.90;;;;;;5068672;28;20135;-60
2022/09/23 07:57:35;;;;;;;14.32;11.50;;;11.50;99.90;;;;;;5068439;28;20040;-63
2022/09/23 08:00:02;;;;;;;13.63;11.07;;;11.60;99.90;;;;;;5068492;28;20045;-62
2022/09/23 08:02:28;;;;;;;12.95;11.43;;;11.70;99.90;;;;;;5068061;28;20127;-62
2022/09/23 08:04:54;;;;;;;12.35;11.00;;;11.70;99.90;;;;;;5066974;28;20132;-63
2022/09/23 08:07:20;;;;;;;12.82;11.43;;;11.70;99.90;;;;;;5058466;28;20045;-61
2022/09/23 08:09:45;;;;;;;15.65;11.77;;;11.80;99.90;;;;;;5048342;28;20044;-62
2022/09/23 08:12:15;;;;;;;12.27;11.05;;;11.80;99.90;;;;;;5047583;28;20045;-64
2022/09/23 08:14:41;;;;;;;12.98;11.63;;;11.80;99.90;;;;;;5047843;28;20057;-63
2022/09/23 08:17:07;;;;;;;14.75;11.70;;;11.80;99.90;;;;;;5048884;28;20083;-63
2022/09/23 08:19:33;;;;;;;12.60;11.27;;;11.90;99.90;;;;;;5048036;28;20048;-63
2022/09/23 08:21:58;;;;;;;13.60;11.23;;;11.90;99.90;;;;;;5056619;28;20468;-63
2022/09/23 08:24:25;;;;;;;12.45;11.20;;;11.90;99.90;;;;;;5065609;28;20044;-63
2022/09/23 08:26:52;;;;;;;14.77;11.63;;;11.90;99.90;;;;;;5066965;28;20044;-63
2022/09/23 08:29:20;;;;;;;14.02;11.63;;;11.80;99.90;;;;;;5067815;28;20422;-63
2022/09/23 08:31:46;;;;;;;13.63;12.02;;;11.90;99.90;;;;;;5067359;28;20045;-61
2022/09/23 08:34:12;;;;;;;14.70;11.45;;;11.90;99.90;;;;;;5067793;28;20052;-63
2022/09/23 08:36:38;;;;;;;16.95;11.23;;;11.90;99.90;;;;;;5068111;28;20036;-62
2022/09/23 08:39:05;;;;;;;12.10;10.90;;;12.00;99.90;;;;;;5067876;28;20052;-64
2022/09/23 08:41:53;;;;;;;12.27;10.98;;;12.10;99.90;;;;;;5066885;28;20048;-60
2022/09/23 08:44:20;;;;;;;12.57;11.32;;;12.20;99.90;;;;;;5050049;28;20044;-63
2022/09/23 08:46:49;;;;;;;12.20;10.82;;;12.20;99.90;;;;;;5066099;28;20032;-62
2022/09/23 08:49:47;;;;;;;13.57;12.18;;;12.30;99.90;;;;;;5067801;28;20083;-62
2022/09/23 08:52:26;;;;;;;13.02;11.70;;;12.40;99.90;;;;;;5035830;28;20071;-61
2022/09/23 08:54:51;;;;;;;13.85;11.43;;;12.40;99.90;;;;;;5068180;28;20045;-62
2022/09/23 08:57:40;;;;;;;12.32;11.13;;;12.30;99.90;;;;;;5067226;28;20128;-62
2022/09/23 09:00:06;;;;;;;12.75;11.23;;;12.60;99.90;;;;;;5067033;28;20130;-61
2022/09/23 09:02:34;;;;;;;14.13;10.90;;;12.60;99.90;;;;;;5067716;28;20410;-61
2022/09/23 09:05:04;;;;;;;11.63;10.10;;;12.70;99.90;;;;;;5065741;28;20984;-62
2022/09/23 09:07:33;;;;;;;13.18;10.93;;;12.70;99.90;;;;;;5057107;28;20045;-61
2022/09/23 09:10:18;;;;;;;12.60;10.93;;;12.70;99.90;;;;;;5050452;28;20036;-60
2022/09/23 09:13:06;;;;;;;12.65;10.80;;;12.90;99.90;;;;;;5065054;28;20053;-61
2022/09/23 09:15:50;;;;;;;12.90;10.88;;;12.80;99.90;;;;;;5066758;28;20497;-60
2022/09/23 09:18:21;;;;;;;13.32;11.50;;;12.90;99.90;;;;;;5067206;28;20048;-63
2022/09/23 09:20:57;;;;;;;14.30;11.38;;;13.00;99.90;;;;;;5067195;28;20048;-61
2022/09/23 09:23:51;;;;;;;13.82;10.70;;;13.10;99.90;;;;;;5066888;28;20048;-61
2022/09/23 09:26:28;;;;;;;15.15;10.90;;;13.10;99.90;;;;;;5066019;28;20037;-62
2022/09/23 09:29:07;;;;;;;12.52;10.68;;;13.20;99.90;;;;;;5067132;28;20052;-62
2022/09/23 09:31:42;;;;;;;12.38;10.55;;;13.20;99.90;;;;;;5066629;28;20052;-61
2022/09/23 09:34:23;;;;;;;11.90;10.65;;;13.10;99.90;;;;;;5067781;28;20048;-61
2022/09/23 09:37:05;;;;;;;12.07;10.75;;;13.30;99.90;;;;;;5067011;28;20161;-61
2022/09/23 09:39:32;;;;;;;11.35;10.18;;;13.20;99.90;;;;;;5067083;28;20379;-60
2022/09/23 09:41:59;;;;;;;12.43;10.65;;;13.30;99.90;;;;;;5066132;28;20052;-61
2022/09/23 09:44:30;;;;;;;11.63;10.43;;;13.30;99.90;;;;;;5066372;28;20490;-62
2022/09/23 09:47:19;;;;;;;11.13;9.90;;;13.30;99.90;;;;;;5066916;28;20051;-62
2022/09/23 09:49:57;;;;;;;13.57;9.85;;;13.40;99.90;;;;;;5066172;28;20036;-61
2022/09/23 09:52:28;;;;;;;11.07;9.88;;;13.50;99.90;;;;;;5062292;28;20513;-61
2022/09/23 09:55:13;;;;;;;14.38;10.45;;;13.60;99.90;;;;;;5046479;28;20045;-62
2022/09/23 09:58:02;;;;;;;11.88;10.63;;;13.60;99.90;;;;;;5046791;28;20413;-61
2022/09/23 10:00:29;;;;;;;12.75;10.05;;;13.50;99.90;;;;;;5047021;28;20052;-62
2022/09/23 10:02:59;;;;;;;12.20;9.75;;;13.70;99.90;;;;;;5046860;28;20474;-62
2022/09/23 10:05:45;;;;;;;11.75;10.55;;;13.60;99.90;;;;;;5048447;28;20375;-61
2022/09/23 10:08:33;;;;;;;11.07;9.95;;;13.70;99.90;;;;;;5055875;28;20052;-62
2022/09/23 10:11:16;;;;;;;14.68;10.50;;;13.70;99.90;;;;;;5065965;28;20457;-61
2022/09/23 10:14:04;;;;;;;13.07;10.32;;;13.60;99.90;;;;;;5065724;28;20042;-61
2022/09/23 10:16:32;;;;;;;11.30;10.00;;;13.80;99.90;;;;;;5064425;28;20067;-60
2022/09/23 10:19:30;;;;;;;14.23;10.52;;;13.80;99.90;;;;;;5066646;28;20486;-61
2022/09/23 10:22:01;;;;;;;12.32;10.10;;;13.90;99.90;;;;;;5056365;28;20477;-60
2022/09/23 10:24:31;;;;;;;14.40;11.32;;;14.00;99.90;;;;;;5060647;28;20047;-62
2022/09/23 10:27:10;;;;;;;13.10;10.68;;;13.90;99.90;;;;;;5064099;28;20095;-61
2022/09/23 10:29:38;;;;;;;11.32;10.13;;;14.00;99.90;;;;;;5065549;28;20105;-61
2022/09/23 10:32:25;;;;;;;12.10;9.98;;;14.10;99.90;;;;;;5065380;28;20060;-63
2022/09/23 10:35:13;;;;;;;13.57;9.77;;;14.10;99.90;;;;;;5065550;28;20579;-63
2022/09/23 10:37:54;;;;;;;14.75;9.88;;;14.20;99.90;;;;;;5057924;28;20064;-62
2022/09/23 10:46:37;;;;;;;13.52;10.15;;;14.40;99.90;;;;;;5065217;28;20156;-61
2022/09/23 10:49:08;;;;;;;11.48;9.80;;;14.40;99.90;;;;;;5065843;28;20055;-62
2022/09/23 10:52:02;;;;;;;11.45;10.00;;;14.40;99.90;;;;;;5065570;28;20124;-62
2022/09/23 10:54:46;;;;;;;16.23;10.25;;;14.40;99.90;;;;;;5065445;28;20048;-62
2022/09/23 10:58:03;;;;;;;12.25;9.88;;;14.50;99.90;;;;;;5065070;28;20055;-62
2022/09/23 11:01:12;;;;;;;14.85;10.38;;;14.50;99.90;;;;;;5028954;28;20057;-59
2022/09/23 11:04:05;;;;;;;13.55;10.50;;;14.60;99.90;;;;;;5066027;28;20041;-62
2022/09/23 11:06:54;;;;;;;11.98;9.52;;;14.70;99.90;;;;;;5059333;28;20044;-62
2022/09/23 11:09:39;;;;;;;13.50;9.88;;;14.60;99.90;;;;;;5045137;28;20044;-62
2022/09/23 11:12:38;;;;;;;;;;;14.60;99.90;;;;;;5046097;28;20128;-61
2022/09/23 11:15:19;;;;;;;13.98;10.50;;;14.60;99.90;;;;;;5033515;28;20401;-62
2022/09/23 11:18:02;;;;;;;12.00;9.57;;;14.60;99.90;;;;;;5045476;28;20049;-63
2022/09/23 11:20:51;;;;;;;10.88;9.05;;;14.70;99.90;;;;;;5045725;28;20069;-62
2022/09/23 11:23:28;;;;;;;12.68;9.48;;;14.80;99.90;;;;;;5045267;28;20038;-62
2022/09/23 11:26:30;;;;;;;13.00;10.10;;;14.80;99.90;;;;;;5045381;28;20124;-63
2022/09/23 11:29:17;;;;;;;11.15;9.70;;;14.80;99.90;;;;;;5045501;28;20095;-63
2022/09/23 11:31:57;;;;;;;11.15;9.05;;;14.90;99.90;;;;;;5045007;28;20037;-63
2022/09/23 11:34:59;;;;;;;11.63;10.38;;;14.90;99.90;;;;;;5045425;28;20569;-63
2022/09/23 11:37:30;;;;;;;11.02;9.93;;;15.00;99.90;;;;;;4967409;28;20074;-62
2022/09/23 11:40:34;;;;;;;11.35;9.82;;;15.10;99.90;;;;;;5035684;28;20053;-63
2022/09/23 11:43:12;;;;;;;10.73;9.35;;;15.10;99.90;;;;;;5038174;28;20479;-63
2022/09/23 11:46:13;;;;;;;11.73;9.40;;;15.20;99.90;;;;;;5045477;28;20047;-62
2022/09/23 11:48:46;;;;;;;12.55;9.35;;;15.30;99.90;;;;;;5037820;28;20056;-63
2022/09/23 11:51:17;;;;;;;10.32;9.05;;;15.30;99.90;;;;;;5048895;28;20840;-63
2022/09/23 11:54:20;;;;;;;9.93;8.93;;;15.20;99.90;;;;;;5048924;28;20040;-63
2022/09/23 11:56:59;;;;;;;11.95;9.30;;;15.30;99.90;;;;;;5041510;28;20061;-63
2022/09/23 11:59:42;;;;;;;10.85;8.60;;;15.40;99.90;;;;;;5048298;28;20037;-62
2022/09/23 12:02:23;;;;;;;12.40;8.95;;;15.40;99.90;;;;;;5049362;28;20045;-63
2022/09/23 12:05:09;;;;;;;12.10;8.45;;;15.40;99.90;;;;;;5047170;28;20040;-62
2022/09/23 12:07:55;;;;;;;12.48;8.70;;;15.50;99.90;;;;;;5059938;28;20462;-63
2022/09/23 12:10:26;;;;;;;9.13;8.15;;;15.40;99.90;;;;;;5068854;28;20068;-63
2022/09/23 12:13:15;;;;;;;11.48;8.88;;;15.40;99.90;;;;;;5067818;28;20538;-63
2022/09/23 12:16:08;;;;;;;9.55;8.25;;;15.50;99.90;;;;;;5067607;28;20059;-62
2022/09/23 12:18:53;;;;;;;11.57;8.23;;;15.50;99.90;;;;;;5067247;28;20048;-62
2022/09/23 12:21:33;;;;;;;11.87;9.00;;;15.60;99.90;;;;;;5067087;28;20049;-63
2022/09/23 12:24:23;;;;;;;13.93;9.27;;;15.60;99.90;;;;;;5067529;28;20407;-62
2022/09/23 12:26:55;;;;;;;11.90;8.60;;;15.50;99.90;;;;;;5066445;28;20074;-62
2022/09/23 12:29:24;;;;;;;14.35;9.00;;;15.60;99.90;;;;;;5065915;28;20055;-62
2022/09/23 12:31:50;;;;;;;12.07;9.43;;;15.70;99.90;;;;;;5067048;28;20398;-61
2022/09/23 12:34:42;;;;;;;8.90;7.75;;;15.70;99.90;;;;;;5067649;28;20032;-62
2022/09/23 12:37:08;;;;;;;11.00;8.98;;;15.70;99.90;;;;;;5068093;28;20099;-63
2022/09/23 12:39:37;;;;;;;12.25;8.90;;;15.80;99.90;;;;;;5067082;28;20144;-62
2022/09/23 12:42:15;;;;;;;10.48;8.70;;;15.80;99.90;;;;;;5066308;28;20177;-63
2022/09/23 12:44:43;;;;;;;10.23;8.00;;;15.90;99.90;;;;;;5066849;28;20052;-63
2022/09/23 12:47:24;;;;;;;9.80;8.30;;;15.80;99.90;;;;;;5066677;28;20048;-62
2022/09/23 12:49:57;;;;;;;11.20;8.10;;;15.80;99.90;;;;;;5067220;28;20491;-62
2022/09/23 12:52:26;;;;;;;11.65;8.27;;;15.90;99.90;;;;;;5066672;28;20448;-62
2022/09/23 12:54:57;;;;;;;9.40;7.50;;;15.90;99.90;;;;;;5067104;28;20476;-62
2022/09/23 12:57:32;;;;;;;11.45;7.38;;;16.00;99.90;;;;;;5066243;28;20050;-62
2022/09/23 13:00:13;;;;;;;9.85;7.93;;;16.10;99.90;;;;;;5065958;28;20047;-62
2022/09/23 13:08:39;;;;;;;12.90;7.72;;;16.00;99.90;;;;;;5052060;28;20175;-63
2022/09/23 13:11:13;;;;;;;11.60;7.43;;;16.10;99.90;;;;;;5045903;28;20041;-63
2022/09/23 13:13:42;;;;;;;10.88;7.50;;;16.10;99.90;;;;;;5046118;28;20056;-62
2022/09/23 13:16:42;;;;;;;8.57;6.95;;;16.20;99.90;;;;;;5008234;28;1098557;-63
2022/09/23 13:19:29;;;;;;;10.20;6.60;;;16.10;99.90;;;;;;5047899;28;20115;-63